Avon, Pennsylvania
Current Conditions -  °F | °C
As of 6:58 AM on Friday 24 Oct 2014 (Local Time) from KMUI Reporting Station
Broken Clouds Broken Clouds  
Wind Chill: 56°   Ceiling: 3400
Heat Index: 56°   Visibility: 10mi
Dew Point: 46°   Wind: 7mph
Humidity: 68%   Direction: NA
Pressure: 29.91"   Gusts: NA
Location:  40.2957°N, 76.4189°W
Report Text: KMUI 241058Z AUTO VRB06KT 10SM BKN034 13/08 A2991 RMK AO2 SLP132 T01320075 $
Loading
Personal Weather Stations






























Interactive Weather Map
Tropical Storm Tracking
New forecast layout! Learn more

10-Day Weather Forecast

Advertisements
Track Severe Weather on mobile